sensor_id;sensor_type;location;lat;lon;timestamp;temperature;humidity
490;DHT22;231;48.120;11.576;2023-03-20T02:43:41;8.60;99.90
490;DHT22;231;48.120;11.576;2023-03-20T02:46:14;8.60;99.90
490;DHT22;231;48.120;11.576;2023-03-20T02:48:48;8.60;99.90
490;DHT22;231;48.120;11.576;2023-03-20T02:51:20;8.60;99.90
490;DHT22;231;48.120;11.576;2023-03-20T02:53:52;8.60;99.90
490;DHT22;231;48.120;11.576;2023-03-20T02:56:25;8.60;99.90
490;DHT22;231;48.120;11.576;2023-03-20T02:59:03;8.60;99.90
490;DHT22;231;48.120;11.576;2023-03-20T03:01:35;8.60;99.90
490;DHT22;231;48.120;11.576;2023-03-20T03:04:08;8.60;99.90
490;DHT22;231;48.120;11.576;2023-03-20T03:06:39;8.60;99.90
490;DHT22;231;48.120;11.576;2023-03-20T03:09:12;8.60;99.90
490;DHT22;231;48.120;11.576;2023-03-20T03:11:43;8.60;99.90
490;DHT22;231;48.120;11.576;2023-03-20T03:14:20;8.60;99.90
490;DHT22;231;48.120;11.576;2023-03-20T03:16:53;8.60;99.90
490;DHT22;231;48.120;11.576;2023-03-20T03:19:23;8.60;99.90
490;DHT22;231;48.120;11.576;2023-03-20T03:21:52;8.60;99.90
490;DHT22;231;48.120;11.576;2023-03-20T03:24:28;8.50;99.90
490;DHT22;231;48.120;11.576;2023-03-20T03:26:58;8.50;99.90
490;DHT22;231;48.120;11.576;2023-03-20T03:29:32;8.50;99.90
490;DHT22;231;48.120;11.576;2023-03-20T03:32:01;8.50;99.90
490;DHT22;231;48.120;11.576;2023-03-20T03:34:29;8.50;99.90
490;DHT22;231;48.120;11.576;2023-03-20T03:37:02;8.50;99.90
490;DHT22;231;48.120;11.576;2023-03-20T03:39:36;8.50;99.90
490;DHT22;231;48.120;11.576;2023-03-20T03:42:07;8.50;99.90
490;DHT22;231;48.120;11.576;2023-03-20T03:44:47;8.50;99.90
490;DHT22;231;48.120;11.576;2023-03-20T03:47:20;8.60;99.90
490;DHT22;231;48.120;11.576;2023-03-20T03:49:50;8.60;99.90
490;DHT22;231;48.120;11.576;2023-03-20T03:52:24;8.60;99.90
490;DHT22;231;48.120;11.576;2023-03-20T03:55:02;8.60;99.90
490;DHT22;231;48.120;11.576;2023-03-20T03:57:35;8.60;99.90
490;DHT22;231;48.120;11.576;2023-03-20T04:00:29;8.60;99.90
490;DHT22;231;48.120;11.576;2023-03-20T04:03:02;8.60;99.90
490;DHT22;231;48.120;11.576;2023-03-20T04:05:45;8.60;99.90
490;DHT22;231;48.120;11.576;2023-03-20T04:08:45;8.60;99.90
490;DHT22;231;48.120;11.576;2023-03-20T04:11:41;8.60;99.90
490;DHT22;231;48.120;11.576;2023-03-20T04:14:48;8.60;99.90
490;DHT22;231;48.120;11.576;2023-03-20T04:17:52;8.60;99.90
490;DHT22;231;48.120;11.576;2023-03-20T04:26:54;8.60;99.90
490;DHT22;231;48.120;11.576;2023-03-20T06:15:23;8.70;99.90
490;DHT22;231;48.120;11.576;2023-03-20T06:18:33;8.70;99.90
490;DHT22;231;48.120;11.576;2023-03-20T06:21:24;8.70;99.90
490;DHT22;231;48.120;11.576;2023-03-20T06:27:26;8.70;99.90
490;DHT22;231;48.120;11.576;2023-03-20T06:29:55;8.70;99.90
490;DHT22;231;48.120;11.576;2023-03-20T06:32:22;8.70;99.90
490;DHT22;231;48.120;11.576;2023-03-20T06:34:49;8.70;99.90
490;DHT22;231;48.120;11.576;2023-03-20T06:37:16;8.80;99.90
490;DHT22;231;48.120;11.576;2023-03-20T06:39:46;8.80;99.90
490;DHT22;231;48.120;11.576;2023-03-20T06:42:13;8.80;99.90
490;DHT22;231;48.120;11.576;2023-03-20T06:44:42;8.80;99.90
490;DHT22;231;48.120;11.576;2023-03-20T06:47:09;8.90;99.90
490;DHT22;231;48.120;11.576;2023-03-20T06:49:38;8.90;99.90
490;DHT22;231;48.120;11.576;2023-03-20T06:52:13;8.90;99.90
490;DHT22;231;48.120;11.576;2023-03-20T06:54:43;8.90;99.90
490;DHT22;231;48.120;11.576;2023-03-20T06:57:11;9.00;99.90
490;DHT22;231;48.120;11.576;2023-03-20T06:59:38;9.10;99.90
490;DHT22;231;48.120;11.576;2023-03-20T07:02:08;9.10;99.90
490;DHT22;231;48.120;11.576;2023-03-20T07:04:35;9.30;99.90
490;DHT22;231;48.120;11.576;2023-03-20T07:07:03;9.60;99.90
490;DHT22;231;48.120;11.576;2023-03-20T07:09:30;9.80;99.90
490;DHT22;231;48.120;11.576;2023-03-20T07:11:57;10.10;99.90
490;DHT22;231;48.120;11.576;2023-03-20T07:14:30;10.30;99.90
490;DHT22;231;48.120;11.576;2023-03-20T07:17:06;10.50;99.90
490;DHT22;231;48.120;11.576;2023-03-20T07:19:34;10.70;99.90
490;DHT22;231;48.120;11.576;2023-03-20T07:22:04;10.90;99.90
490;DHT22;231;48.120;11.576;2023-03-20T07:24:32;11.00;99.90
490;DHT22;231;48.120;11.576;2023-03-20T07:27:00;11.10;99.90
490;DHT22;231;48.120;11.576;2023-03-20T07:29:27;11.30;99.90
490;DHT22;231;48.120;11.576;2023-03-20T07:31:57;11.60;99.90
490;DHT22;231;48.120;11.576;2023-03-20T07:34:27;12.00;99.90
490;DHT22;231;48.120;11.576;2023-03-20T07:36:54;12.40;99.90
490;DHT22;231;48.120;11.576;2023-03-20T07:39:23;12.60;99.90
490;DHT22;231;48.120;11.576;2023-03-20T07:41:50;12.70;99.90
490;DHT22;231;48.120;11.576;2023-03-20T07:44:17;12.80;99.90
490;DHT22;231;48.120;11.576;2023-03-20T07:46:45;12.90;99.90
490;DHT22;231;48.120;11.576;2023-03-20T07:49:12;13.00;99.90
490;DHT22;231;48.120;11.576;2023-03-20T07:51:44;13.10;99.90
490;DHT22;231;48.120;11.576;2023-03-20T07:54:11;13.20;99.90
490;DHT22;231;48.120;11.576;2023-03-20T07:56:38;13.20;99.90
490;DHT22;231;48.120;11.576;2023-03-20T07:59:05;13.30;99.90
490;DHT22;231;48.120;11.576;2023-03-20T08:01:32;13.30;99.90
490;DHT22;231;48.120;11.576;2023-03-20T08:03:59;13.30;99.90
490;DHT22;231;48.120;11.576;2023-03-20T08:06:26;13.30;99.90
490;DHT22;231;48.120;11.576;2023-03-20T08:08:54;13.40;99.90
490;DHT22;231;48.120;11.576;2023-03-20T08:11:21;13.30;99.90
490;DHT22;231;48.120;11.576;2023-03-20T08:13:48;13.20;99.90
490;DHT22;231;48.120;11.576;2023-03-20T08:16:15;13.30;99.90
490;DHT22;231;48.120;11.576;2023-03-20T08:18:42;13.40;99.90
490;DHT22;231;48.120;11.576;2023-03-20T08:21:09;13.30;99.90
490;DHT22;231;48.120;11.576;2023-03-20T08:23:36;13.40;99.90
490;DHT22;231;48.120;11.576;2023-03-20T08:26:04;13.50;99.90
490;DHT22;231;48.120;11.576;2023-03-20T08:28:32;13.80;99.90
490;DHT22;231;48.120;11.576;2023-03-20T08:30:59;14.00;99.90
490;DHT22;231;48.120;11.576;2023-03-20T08:33:26;14.10;99.90
490;DHT22;231;48.120;11.576;2023-03-20T08:35:57;14.30;99.90
490;DHT22;231;48.120;11.576;2023-03-20T08:38:24;14.70;99.90
490;DHT22;231;48.120;11.576;2023-03-20T08:40:51;14.90;99.90
490;DHT22;231;48.120;11.576;2023-03-20T08:43:20;14.90;99.90
490;DHT22;231;48.120;11.576;2023-03-20T08:45:47;14.70;99.90
490;DHT22;231;48.120;11.576;2023-03-20T08:48:14;14.80;99.90
490;DHT22;231;48.120;11.576;2023-03-20T08:50:42;14.70;99.90
490;DHT22;231;48.120;11.576;2023-03-20T08:53:09;15.00;99.90
490;DHT22;231;48.120;11.576;2023-03-20T08:55:36;15.30;99.90
490;DHT22;231;48.120;11.576;2023-03-20T08:58:03;15.50;99.90
490;DHT22;231;48.120;11.576;2023-03-20T09:00:31;15.90;99.90
490;DHT22;231;48.120;11.576;2023-03-20T09:02:58;16.10;99.90
490;DHT22;231;48.120;11.576;2023-03-20T09:05:25;16.30;99.90
490;DHT22;231;48.120;11.576;2023-03-20T09:07:52;16.30;99.90
490;DHT22;231;48.120;11.576;2023-03-20T09:10:19;16.40;99.90
490;DHT22;231;48.120;11.576;2023-03-20T09:12:46;16.40;99.90
490;DHT22;231;48.120;11.576;2023-03-20T09:15:12;17.30;99.90
490;DHT22;231;48.120;11.576;2023-03-20T09:17:41;17.60;99.90
490;DHT22;231;48.120;11.576;2023-03-20T09:20:08;17.60;99.90
490;DHT22;231;48.120;11.576;2023-03-20T09:22:35;17.40;99.90
490;DHT22;231;48.120;11.576;2023-03-20T09:25:06;17.00;99.90
490;DHT22;231;48.120;11.576;2023-03-20T09:27:33;16.80;99.90
490;DHT22;231;48.120;11.576;2023-03-20T09:30:00;16.50;99.90
490;DHT22;231;48.120;11.576;2023-03-20T09:32:27;16.10;99.90
490;DHT22;231;48.120;11.576;2023-03-20T09:34:55;15.90;99.90
490;DHT22;231;48.120;11.576;2023-03-20T09:37:22;15.80;99.90
490;DHT22;231;48.120;11.576;2023-03-20T09:39:49;15.90;99.90
490;DHT22;231;48.120;11.576;2023-03-20T09:42:27;16.10;99.90
490;DHT22;231;48.120;11.576;2023-03-20T09:45:02;16.30;99.90
490;DHT22;231;48.120;11.576;2023-03-20T09:47:35;16.30;99.90
490;DHT22;231;48.120;11.576;2023-03-20T09:50:24;16.30;99.90
490;DHT22;231;48.120;11.576;2023-03-20T09:53:01;16.10;99.90
490;DHT22;231;48.120;11.576;2023-03-20T09:55:34;16.00;99.90
490;DHT22;231;48.120;11.576;2023-03-20T09:58:08;16.10;99.90
490;DHT22;231;48.120;11.576;2023-03-20T10:00:36;16.20;99.90
490;DHT22;231;48.120;11.576;2023-03-20T10:03:05;16.30;99.90
490;DHT22;231;48.120;11.576;2023-03-20T10:05:37;16.40;99.90
490;DHT22;231;48.120;11.576;2023-03-20T10:08:08;16.80;99.90
490;DHT22;231;48.120;11.576;2023-03-20T10:10:49;17.50;99.90
490;DHT22;231;48.120;11.576;2023-03-20T10:16:16;17.40;99.90
490;DHT22;231;48.120;11.576;2023-03-20T10:18:48;17.20;99.90
490;DHT22;231;48.120;11.576;2023-03-20T10:21:22;17.00;99.90
490;DHT22;231;48.120;11.576;2023-03-20T10:23:57;16.80;99.90
490;DHT22;231;48.120;11.576;2023-03-20T10:26:26;16.70;99.90
490;DHT22;231;48.120;11.576;2023-03-20T10:28:56;16.70;99.90
490;DHT22;231;48.120;11.576;2023-03-20T10:31:35;17.00;99.90
490;DHT22;231;48.120;11.576;2023-03-20T10:37:18;19.70;39.20
490;DHT22;231;48.120;11.576;2023-03-20T10:39:56;20.80;13.30
490;DHT22;231;48.120;11.576;2023-03-20T10:42:31;21.10;6.50
490;DHT22;231;48.120;11.576;2023-03-20T10:45:03;20.80;7.00
490;DHT22;231;48.120;11.576;2023-03-20T10:47:35;20.50;6.30
490;DHT22;231;48.120;11.576;2023-03-20T10:50:06;20.70;5.80
490;DHT22;231;48.120;11.576;2023-03-20T10:52:39;22.50;5.20
490;DHT22;231;48.120;11.576;2023-03-20T10:55:11;24.90;1.00
490;DHT22;231;48.120;11.576;2023-03-20T10:57:45;25.60;1.00
490;DHT22;231;48.120;11.576;2023-03-20T11:00:17;26.70;1.00
490;DHT22;231;48.120;11.576;2023-03-20T11:02:46;28.40;1.00
490;DHT22;231;48.120;11.576;2023-03-20T11:05:21;30.20;1.00
490;DHT22;231;48.120;11.576;2023-03-20T11:08:00;31.20;1.00
490;DHT22;231;48.120;11.576;2023-03-20T11:10:28;31.20;1.00
490;DHT22;231;48.120;11.576;2023-03-20T11:12:56;30.80;1.00
490;DHT22;231;48.120;11.576;2023-03-20T11:15:24;31.10;1.00
490;DHT22;231;48.120;11.576;2023-03-20T11:17:53;32.30;1.00
490;DHT22;231;48.120;11.576;2023-03-20T11:20:21;33.30;1.00
490;DHT22;231;48.120;11.576;2023-03-20T11:22:48;34.00;1.00
490;DHT22;231;48.120;11.576;2023-03-20T11:25:28;35.00;1.00
490;DHT22;231;48.120;11.576;2023-03-20T11:27:57;34.60;1.00
490;DHT22;231;48.120;11.576;2023-03-20T11:30:43;33.30;1.00
490;DHT22;231;48.120;11.576;2023-03-20T11:33:10;31.60;1.00
490;DHT22;231;48.120;11.576;2023-03-20T11:35:37;30.10;1.00
490;DHT22;231;48.120;11.576;2023-03-20T11:38:11;28.60;1.00
490;DHT22;231;48.120;11.576;2023-03-20T11:40:40;27.30;1.00
490;DHT22;231;48.120;11.576;2023-03-20T11:43:11;26.70;1.00
490;DHT22;231;48.120;11.576;2023-03-20T11:45:39;27.40;1.00
490;DHT22;231;48.120;11.576;2023-03-20T11:48:15;27.40;1.00
490;DHT22;231;48.120;11.576;2023-03-20T11:50:45;27.00;1.00
490;DHT22;231;48.120;11.576;2023-03-20T11:53:22;26.50;1.00
490;DHT22;231;48.120;11.576;2023-03-20T11:56:04;26.30;1.00
490;DHT22;231;48.120;11.576;2023-03-20T11:58:33;25.90;1.00
490;DHT22;231;48.120;11.576;2023-03-20T12:01:03;25.40;1.00
490;DHT22;231;48.120;11.576;2023-03-20T12:03:38;25.00;1.00
490;DHT22;231;48.120;11.576;2023-03-20T12:06:07;24.60;1.00
490;DHT22;231;48.120;11.576;2023-03-20T12:08:36;24.30;1.00
490;DHT22;231;48.120;11.576;2023-03-20T12:11:18;23.90;1.00
490;DHT22;231;48.120;11.576;2023-03-20T12:13:47;23.40;1.00
490;DHT22;231;48.120;11.576;2023-03-20T12:16:18;23.10;1.00
490;DHT22;231;48.120;11.576;2023-03-20T12:18:51;22.90;1.00
490;DHT22;231;48.120;11.576;2023-03-20T12:21:23;22.70;1.00
490;DHT22;231;48.120;11.576;2023-03-20T12:23:55;22.50;1.00
490;DHT22;231;48.120;11.576;2023-03-20T12:26:31;22.40;1.00
490;DHT22;231;48.120;11.576;2023-03-20T12:29:04;22.50;1.00
490;DHT22;231;48.120;11.576;2023-03-20T12:31:39;22.60;1.00
490;DHT22;231;48.120;11.576;2023-03-20T12:34:11;22.70;1.00
490;DHT22;231;48.120;11.576;2023-03-20T12:36:42;22.60;1.00
490;DHT22;231;48.120;11.576;2023-03-20T12:39:13;22.40;1.00
490;DHT22;231;48.120;11.576;2023-03-20T12:41:52;22.00;1.00
490;DHT22;231;48.120;11.576;2023-03-20T12:44:31;21.50;1.00
490;DHT22;231;48.120;11.576;2023-03-20T12:47:12;21.10;1.00
490;DHT22;231;48.120;11.576;2023-03-20T12:49:47;20.50;1.00
490;DHT22;231;48.120;11.576;2023-03-20T12:52:26;19.70;1.00
490;DHT22;231;48.120;11.576;2023-03-20T12:57:59;18.30;1.00
490;DHT22;231;48.120;11.576;2023-03-20T13:00:30;17.70;1.00
490;DHT22;231;48.120;11.576;2023-03-20T13:03:15;17.30;1.00
490;DHT22;231;48.120;11.576;2023-03-20T13:05:47;17.00;1.00
490;DHT22;231;48.120;11.576;2023-03-20T13:08:36;16.90;1.00
490;DHT22;231;48.120;11.576;2023-03-20T13:11:13;16.80;1.00
490;DHT22;231;48.120;11.576;2023-03-20T13:13:47;16.70;1.00
490;DHT22;231;48.120;11.576;2023-03-20T13:16:22;16.70;1.20
490;DHT22;231;48.120;11.576;2023-03-20T13:18:56;16.70;1.30
490;DHT22;231;48.120;11.576;2023-03-20T13:21:31;16.70;1.20
490;DHT22;231;48.120;11.576;2023-03-20T13:24:11;16.70;1.20
490;DHT22;231;48.120;11.576;2023-03-20T13:26:44;16.70;1.20
490;DHT22;231;48.120;11.576;2023-03-20T13:29:20;16.80;1.00
490;DHT22;231;48.120;11.576;2023-03-20T13:31:59;17.10;1.00
490;DHT22;231;48.120;11.576;2023-03-20T13:34:36;17.60;1.00
490;DHT22;231;48.120;11.576;2023-03-20T13:37:12;18.10;1.00
490;DHT22;231;48.120;11.576;2023-03-20T13:39:42;18.60;1.00
490;DHT22;231;48.120;11.576;2023-03-20T13:42:14;19.00;1.00
490;DHT22;231;48.120;11.576;2023-03-20T13:44:45;19.40;1.00
490;DHT22;231;48.120;11.576;2023-03-20T13:47:16;19.80;1.00
490;DHT22;231;48.120;11.576;2023-03-20T13:49:51;20.00;1.00
490;DHT22;231;48.120;11.576;2023-03-20T13:52:21;20.20;1.00
490;DHT22;231;48.120;11.576;2023-03-20T13:54:59;20.10;1.00
490;DHT22;231;48.120;11.576;2023-03-20T13:57:52;19.80;1.00
490;DHT22;231;48.120;11.576;2023-03-20T14:00:34;19.20;1.00
490;DHT22;231;48.120;11.576;2023-03-20T14:03:16;18.60;1.00
490;DHT22;231;48.120;11.576;2023-03-20T14:05:45;18.00;1.00
490;DHT22;231;48.120;11.576;2023-03-20T14:08:33;17.50;1.00
490;DHT22;231;48.120;11.576;2023-03-20T14:11:14;17.00;1.00
490;DHT22;231;48.120;11.576;2023-03-20T14:13:44;16.60;1.00
490;DHT22;231;48.120;11.576;2023-03-20T14:16:16;16.30;1.00
490;DHT22;231;48.120;11.576;2023-03-20T14:18:46;16.10;1.60
490;DHT22;231;48.120;11.576;2023-03-20T14:21:16;16.00;2.00
490;DHT22;231;48.120;11.576;2023-03-20T14:23:47;16.00;2.10
490;DHT22;231;48.120;11.576;2023-03-20T14:26:19;16.00;1.80
490;DHT22;231;48.120;11.576;2023-03-20T14:28:57;16.10;1.50
490;DHT22;231;48.120;11.576;2023-03-20T14:31:28;16.20;1.50
490;DHT22;231;48.120;11.576;2023-03-20T14:34:00;16.30;1.10
490;DHT22;231;48.120;11.576;2023-03-20T14:36:44;16.50;1.00
490;DHT22;231;48.120;11.576;2023-03-20T14:39:20;16.70;1.10
490;DHT22;231;48.120;11.576;2023-03-20T14:42:01;16.80;1.00
490;DHT22;231;48.120;11.576;2023-03-20T17:51:22;9.50;26.90
490;DHT22;231;48.120;11.576;2023-03-20T17:53:49;9.40;27.70
490;DHT22;231;48.120;11.576;2023-03-20T17:56:20;9.40;28.30
490;DHT22;231;48.120;11.576;2023-03-20T17:58:47;9.20;28.70
490;DHT22;231;48.120;11.576;2023-03-20T18:01:15;9.20;29.60
490;DHT22;231;48.120;11.576;2023-03-20T18:03:42;9.10;30.20
490;DHT22;231;48.120;11.576;2023-03-20T18:06:15;9.10;31.40
490;DHT22;231;48.120;11.576;2023-03-20T18:08:44;9.00;32.40
490;DHT22;231;48.120;11.576;2023-03-20T18:11:11;8.90;33.40
490;DHT22;231;48.120;11.576;2023-03-20T18:13:38;8.90;34.30
490;DHT22;231;48.120;11.576;2023-03-20T18:16:05;8.90;34.80
490;DHT22;231;48.120;11.576;2023-03-20T18:18:32;8.80;35.60
490;DHT22;231;48.120;11.576;2023-03-20T18:21:00;8.70;36.50
490;DHT22;231;48.120;11.576;2023-03-20T18:23:27;8.70;37.30
490;DHT22;231;48.120;11.576;2023-03-20T18:25:55;8.70;38.00
490;DHT22;231;48.120;11.576;2023-03-20T18:28:22;8.60;38.70
490;DHT22;231;48.120;11.576;2023-03-20T18:30:49;8.60;39.20
490;DHT22;231;48.120;11.576;2023-03-20T18:33:16;8.60;39.50
490;DHT22;231;48.120;11.576;2023-03-20T18:35:43;8.50;39.70
490;DHT22;231;48.120;11.576;2023-03-20T18:38:11;8.50;40.50
490;DHT22;231;48.120;11.576;2023-03-20T18:40:38;8.40;40.90
490;DHT22;231;48.120;11.576;2023-03-20T18:43:06;8.40;41.30
490;DHT22;231;48.120;11.576;2023-03-20T18:45:33;8.30;41.90
490;DHT22;231;48.120;11.576;2023-03-20T18:48:00;8.30;42.40
490;DHT22;231;48.120;11.576;2023-03-20T18:50:29;8.30;43.20
490;DHT22;231;48.120;11.576;2023-03-20T18:52:57;8.20;43.90
490;DHT22;231;48.120;11.576;2023-03-20T18:55:26;8.10;44.50
490;DHT22;231;48.120;11.576;2023-03-20T18:57:54;8.10;45.60
490;DHT22;231;48.120;11.576;2023-03-20T19:00:25;8.10;46.70
490;DHT22;231;48.120;11.576;2023-03-20T19:02:54;8.10;47.70
490;DHT22;231;48.120;11.576;2023-03-20T19:05:25;8.20;48.40
490;DHT22;231;48.120;11.576;2023-03-20T19:07:53;8.20;48.50
490;DHT22;231;48.120;11.576;2023-03-20T19:10:27;8.30;48.50
490;DHT22;231;48.120;11.576;2023-03-20T19:12:55;8.30;48.20
490;DHT22;231;48.120;11.576;2023-03-20T19:15:25;8.30;47.90
490;DHT22;231;48.120;11.576;2023-03-20T19:17:53;8.30;47.80
490;DHT22;231;48.120;11.576;2023-03-20T19:20:29;8.30;48.40
490;DHT22;231;48.120;11.576;2023-03-20T19:22:59;8.30;47.50
490;DHT22;231;48.120;11.576;2023-03-20T19:25:27;8.40;47.40
490;DHT22;231;48.120;11.576;2023-03-20T19:27:54;8.40;47.70
490;DHT22;231;48.120;11.576;2023-03-20T19:30:29;8.40;48.20
490;DHT22;231;48.120;11.576;2023-03-20T19:32:57;8.50;48.20
490;DHT22;231;48.120;11.576;2023-03-20T19:35:25;8.50;48.00
490;DHT22;231;48.120;11.576;2023-03-20T19:37:52;8.50;47.70
490;DHT22;231;48.120;11.576;2023-03-20T19:40:37;8.60;47.60
490;DHT22;231;48.120;11.576;2023-03-20T19:43:05;8.70;47.80
490;DHT22;231;48.120;11.576;2023-03-20T19:45:35;8.70;46.40
490;DHT22;231;48.120;11.576;2023-03-20T19:48:09;8.70;45.70
490;DHT22;231;48.120;11.576;2023-03-20T19:50:37;8.80;45.10
490;DHT22;231;48.120;11.576;2023-03-20T19:53:19;8.80;45.10
490;DHT22;231;48.120;11.576;2023-03-20T19:56:09;8.80;45.10
490;DHT22;231;48.120;11.576;2023-03-20T19:58:37;8.70;45.50
490;DHT22;231;48.120;11.576;2023-03-20T20:01:09;8.70;45.70
490;DHT22;231;48.120;11.576;2023-03-20T20:03:37;8.70;46.00
490;DHT22;231;48.120;11.576;2023-03-20T20:06:07;8.60;46.10
490;DHT22;231;48.120;11.576;2023-03-20T20:08:35;8.60;47.50
490;DHT22;231;48.120;11.576;2023-03-20T20:11:12;8.70;47.00
490;DHT22;231;48.120;11.576;2023-03-20T20:13:40;8.70;46.80
490;DHT22;231;48.120;11.576;2023-03-20T20:16:09;8.80;46.50
490;DHT22;231;48.120;11.576;2023-03-20T20:18:42;8.80;46.00
490;DHT22;231;48.120;11.576;2023-03-20T20:21:24;8.90;45.80
490;DHT22;231;48.120;11.576;2023-03-20T20:23:53;9.00;44.90
490;DHT22;231;48.120;11.576;2023-03-20T20:26:23;9.10;43.70
490;DHT22;231;48.120;11.576;2023-03-20T20:28:53;9.20;42.10
490;DHT22;231;48.120;11.576;2023-03-20T20:31:28;9.30;40.30
490;DHT22;231;48.120;11.576;2023-03-20T20:33:57;9.30;39.50
490;DHT22;231;48.120;11.576;2023-03-20T20:36:25;9.30;39.20
490;DHT22;231;48.120;11.576;2023-03-20T20:38:56;9.30;38.60
490;DHT22;231;48.120;11.576;2023-03-20T20:41:28;9.30;38.10
490;DHT22;231;48.120;11.576;2023-03-20T20:43:56;9.30;38.50
490;DHT22;231;48.120;11.576;2023-03-20T20:49:00;9.30;37.80
490;DHT22;231;48.120;11.576;2023-03-20T20:51:26;9.30;37.70
490;DHT22;231;48.120;11.576;2023-03-20T20:53:53;9.30;37.40
490;DHT22;231;48.120;11.576;2023-03-20T20:56:20;9.30;37.50
490;DHT22;231;48.120;11.576;2023-03-20T20:58:47;9.30;37.50
490;DHT22;231;48.120;11.576;2023-03-20T21:01:14;9.20;37.70
490;DHT22;231;48.120;11.576;2023-03-20T21:03:41;9.20;37.70
490;DHT22;231;48.120;11.576;2023-03-20T21:06:09;9.20;37.90
490;DHT22;231;48.120;11.576;2023-03-20T21:08:36;9.10;38.30
490;DHT22;231;48.120;11.576;2023-03-20T21:11:03;9.20;38.60
490;DHT22;231;48.120;11.576;2023-03-20T21:13:31;9.20;37.90
490;DHT22;231;48.120;11.576;2023-03-20T21:16:01;9.20;38.30
490;DHT22;231;48.120;11.576;2023-03-20T21:18:28;9.20;38.40
490;DHT22;231;48.120;11.576;2023-03-20T21:21:02;9.20;38.20
490;DHT22;231;48.120;11.576;2023-03-20T21:23:30;9.20;38.20
490;DHT22;231;48.120;11.576;2023-03-20T21:25:57;9.20;38.70
490;DHT22;231;48.120;11.576;2023-03-20T21:28:24;9.20;39.10
490;DHT22;231;48.120;11.576;2023-03-20T21:30:51;9.10;39.30
490;DHT22;231;48.120;11.576;2023-03-20T21:33:18;9.00;39.10
490;DHT22;231;48.120;11.576;2023-03-20T21:35:46;8.90;38.70
490;DHT22;231;48.120;11.576;2023-03-20T21:38:13;8.80;38.70
490;DHT22;231;48.120;11.576;2023-03-20T21:40:42;8.60;39.60
490;DHT22;231;48.120;11.576;2023-03-20T21:43:10;8.40;40.90
490;DHT22;231;48.120;11.576;2023-03-20T21:45:37;8.30;42.50
490;DHT22;231;48.120;11.576;2023-03-20T21:48:05;8.10;44.20
490;DHT22;231;48.120;11.576;2023-03-20T21:50:31;8.00;45.90
490;DHT22;231;48.120;11.576;2023-03-20T21:52:58;7.80;47.90
490;DHT22;231;48.120;11.576;2023-03-20T21:55:26;7.70;49.80
490;DHT22;231;48.120;11.576;2023-03-20T21:57:56;7.60;51.70
490;DHT22;231;48.120;11.576;2023-03-20T22:00:23;7.50;53.50
490;DHT22;231;48.120;11.576;2023-03-20T22:02:50;7.40;55.10
490;DHT22;231;48.120;11.576;2023-03-20T22:05:17;7.40;56.80
490;DHT22;231;48.120;11.576;2023-03-20T22:07:44;7.30;58.20
490;DHT22;231;48.120;11.576;2023-03-20T22:10:11;7.20;58.80
490;DHT22;231;48.120;11.576;2023-03-20T22:12:37;7.20;59.20
490;DHT22;231;48.120;11.576;2023-03-20T22:15:07;7.10;59.30
490;DHT22;231;48.120;11.576;2023-03-20T22:17:34;7.10;59.80
490;DHT22;231;48.120;11.576;2023-03-20T22:20:01;7.00;60.20
490;DHT22;231;48.120;11.576;2023-03-20T22:22:28;6.90;61.10
490;DHT22;231;48.120;11.576;2023-03-20T22:24:55;6.90;62.20
490;DHT22;231;48.120;11.576;2023-03-20T22:27:22;6.90;63.80
490;DHT22;231;48.120;11.576;2023-03-20T22:29:49;6.90;64.80
490;DHT22;231;48.120;11.576;2023-03-20T22:32:17;6.80;65.50
490;DHT22;231;48.120;11.576;2023-03-20T22:34:44;6.80;66.10
490;DHT22;231;48.120;11.576;2023-03-20T22:37:11;6.80;66.10
490;DHT22;231;48.120;11.576;2023-03-20T22:39:38;6.80;66.10
490;DHT22;231;48.120;11.576;2023-03-20T22:42:04;6.70;66.70
490;DHT22;231;48.120;11.576;2023-03-20T22:44:31;6.70;68.40
490;DHT22;231;48.120;11.576;2023-03-20T22:46:58;6.80;69.70
490;DHT22;231;48.120;11.576;2023-03-20T22:49:26;6.80;70.20
490;DHT22;231;48.120;11.576;2023-03-20T22:51:53;6.90;70.10
490;DHT22;231;48.120;11.576;2023-03-20T22:54:20;7.00;70.30
490;DHT22;231;48.120;11.576;2023-03-20T22:56:48;7.10;69.60
490;DHT22;231;48.120;11.576;2023-03-20T22:59:14;7.20;67.60
490;DHT22;231;48.120;11.576;2023-03-20T23:01:41;7.30;65.80
490;DHT22;231;48.120;11.576;2023-03-20T23:04:08;7.30;64.10
490;DHT22;231;48.120;11.576;2023-03-20T23:06:37;7.40;62.80
490;DHT22;231;48.120;11.576;2023-03-20T23:09:03;7.40;62.20
490;DHT22;231;48.120;11.576;2023-03-20T23:11:30;7.40;61.60
490;DHT22;231;48.120;11.576;2023-03-20T23:13:57;7.50;61.50
490;DHT22;231;48.120;11.576;2023-03-20T23:16:24;7.50;61.10
490;DHT22;231;48.120;11.576;2023-03-20T23:18:51;7.50;60.90
490;DHT22;231;48.120;11.576;2023-03-20T23:21:17;7.60;60.80
490;DHT22;231;48.120;11.576;2023-03-20T23:23:46;7.70;60.50
490;DHT22;231;48.120;11.576;2023-03-20T23:26:15;7.70;59.90
490;DHT22;231;48.120;11.576;2023-03-20T23:28:43;7.80;59.50
490;DHT22;231;48.120;11.576;2023-03-20T23:31:13;7.80;58.60
490;DHT22;231;48.120;11.576;2023-03-20T23:33:41;7.80;57.80
490;DHT22;231;48.120;11.576;2023-03-20T23:36:09;7.80;57.80
490;DHT22;231;48.120;11.576;2023-03-20T23:38:36;7.80;57.90
490;DHT22;231;48.120;11.576;2023-03-20T23:41:04;7.80;58.10
490;DHT22;231;48.120;11.576;2023-03-20T23:43:31;7.80;58.40
490;DHT22;231;48.120;11.576;2023-03-20T23:45:58;7.70;58.60
490;DHT22;231;48.120;11.576;2023-03-20T23:48:25;7.80;59.00
490;DHT22;231;48.120;11.576;2023-03-20T23:50:52;7.80;59.20
490;DHT22;231;48.120;11.576;2023-03-20T23:53:19;7.80;59.70
490;DHT22;231;48.120;11.576;2023-03-20T23:55:46;7.80;59.60
490;DHT22;231;48.120;11.576;2023-03-20T23:58:15;7.90;59.30
